createdAt,value
2023-05-05T00:02:25.663Z,12.31
2023-05-05T00:04:56.549Z,12.30
2023-05-05T00:07:27.183Z,12.33
2023-05-05T00:09:58.181Z,12.28
2023-05-05T00:12:28.970Z,12.19
2023-05-05T00:14:59.571Z,12.15
2023-05-05T00:17:30.396Z,12.09
2023-05-05T00:20:01.540Z,12.06
2023-05-05T00:22:32.761Z,12.07
2023-05-05T00:25:04.946Z,12.08
2023-05-05T00:27:36.028Z,12.13
2023-05-05T00:30:08.534Z,12.19
2023-05-05T00:32:39.619Z,12.20
2023-05-05T00:35:11.369Z,12.22
2023-05-05T00:37:42.015Z,12.13
2023-05-05T00:40:14.314Z,11.99
2023-05-05T00:42:46.945Z,11.81
2023-05-05T00:45:19.240Z,11.63
2023-05-05T00:47:52.275Z,11.50
2023-05-05T00:50:26.225Z,11.49
2023-05-05T00:52:58.714Z,11.56
2023-05-05T00:55:28.970Z,11.58
2023-05-05T00:58:00.516Z,11.52
2023-05-05T01:00:32.001Z,11.42
2023-05-05T01:03:03.351Z,11.27
2023-05-05T01:05:46.656Z,11.21
2023-05-05T01:08:30.583Z,11.15
2023-05-05T01:11:04.633Z,11.23
2023-05-05T01:13:44.041Z,11.27
2023-05-05T01:16:19.648Z,11.18
2023-05-05T01:18:55.652Z,11.15
2023-05-05T01:21:31.902Z,11.20
2023-05-05T01:24:35.669Z,11.21
2023-05-05T01:27:35.171Z,11.18
2023-05-05T01:30:21.227Z,11.04
2023-05-05T01:32:56.062Z,10.96
2023-05-05T01:35:31.829Z,10.97
2023-05-05T01:38:08.993Z,11.03
2023-05-05T01:40:44.788Z,11.11
2023-05-05T01:43:20.061Z,11.17
2023-05-05T01:45:52.750Z,11.21
2023-05-05T01:48:27.495Z,11.18
2023-05-05T01:50:58.818Z,11.13
2023-05-05T01:53:30.449Z,11.11
2023-05-05T01:56:03.041Z,11.05
2023-05-05T01:58:35.387Z,10.85
2023-05-05T02:01:07.163Z,10.64
2023-05-05T02:03:39.029Z,10.52
2023-05-05T02:06:11.332Z,10.54
2023-05-05T02:08:42.761Z,10.62
2023-05-05T02:11:15.031Z,10.68
2023-05-05T02:13:47.901Z,10.62
2023-05-05T02:16:20.473Z,10.47
2023-05-05T02:18:52.880Z,10.30
2023-05-05T02:21:24.802Z,10.20
2023-05-05T02:23:55.832Z,10.20
2023-05-05T02:26:30.619Z,10.31
2023-05-05T02:29:07.290Z,10.42
2023-05-05T02:31:50.356Z,10.50
2023-05-05T02:34:26.565Z,10.57
2023-05-05T02:37:01.906Z,10.61
2023-05-05T02:39:39.409Z,10.60
2023-05-05T02:42:17.404Z,10.57
2023-05-05T02:44:49.482Z,10.49
2023-05-05T02:47:21.342Z,10.44
2023-05-05T02:49:53.231Z,10.43
2023-05-05T02:52:23.918Z,10.31
2023-05-05T02:54:54.698Z,10.15
2023-05-05T02:57:33.129Z,10.07
2023-05-05T03:00:09.591Z,10.06
2023-05-05T03:02:52.290Z,10.05
2023-05-05T03:05:25.235Z,10.11
2023-05-05T03:08:03.248Z,10.23
2023-05-05T03:10:42.665Z,10.35
2023-05-05T03:13:17.882Z,10.35
2023-05-05T03:15:52.572Z,10.35
2023-05-05T03:18:27.038Z,10.45
2023-05-05T03:21:08.058Z,10.49
2023-05-05T03:23:39.998Z,10.40
2023-05-05T03:26:17.693Z,10.32
2023-05-05T03:28:48.759Z,10.26
2023-05-05T03:31:23.630Z,10.17
2023-05-05T03:33:57.679Z,10.07
2023-05-05T03:36:30.871Z,10.05
2023-05-05T03:39:01.997Z,10.14
2023-05-05T03:41:34.976Z,10.21
2023-05-05T03:44:06.665Z,10.28
2023-05-05T03:46:37.573Z,10.40
2023-05-05T03:49:09.896Z,10.47
2023-05-05T03:51:40.957Z,10.45
2023-05-05T03:54:11.972Z,10.38
2023-05-05T03:56:42.684Z,10.23
2023-05-05T03:59:13.333Z,10.08
2023-05-05T04:01:45.123Z,10.09
2023-05-05T04:04:16.112Z,10.21
2023-05-05T04:06:46.875Z,10.34
2023-05-05T04:09:17.822Z,10.43
2023-05-05T04:11:48.823Z,10.50
2023-05-05T04:14:20.198Z,10.55
2023-05-05T04:16:51.972Z,10.53
2023-05-05T04:19:23.011Z,10.45
2023-05-05T04:21:53.735Z,10.46
2023-05-05T04:24:25.009Z,10.49
2023-05-05T04:26:57.288Z,10.56
2023-05-05T04:29:28.305Z,10.69
2023-05-05T04:32:01.178Z,10.78
2023-05-05T04:34:32.768Z,10.85
2023-05-05T04:37:04.099Z,11.00
2023-05-05T04:39:34.942Z,11.37
2023-05-05T04:42:06.536Z,11.84
2023-05-05T04:44:37.812Z,12.29
2023-05-05T04:47:08.489Z,12.72
2023-05-05T04:49:39.936Z,13.06
2023-05-05T04:52:12.846Z,13.34
2023-05-05T04:54:43.832Z,13.57
2023-05-05T04:57:14.529Z,13.76
2023-05-05T04:59:45.569Z,13.97
2023-05-05T05:02:16.722Z,14.21
2023-05-05T05:04:47.568Z,14.38
2023-05-05T05:07:18.474Z,14.54
2023-05-05T05:09:49.112Z,14.63
2023-05-05T05:12:21.003Z,14.65
2023-05-05T05:14:51.810Z,14.65
2023-05-05T05:17:25.334Z,14.64
2023-05-05T05:19:56.658Z,14.73
2023-05-05T05:22:27.394Z,14.82
2023-05-05T05:24:58.038Z,14.72
2023-05-05T05:27:28.801Z,14.74
2023-05-05T05:29:59.804Z,14.82
2023-05-05T05:32:31.263Z,14.74
2023-05-05T05:35:02.415Z,14.61
2023-05-05T05:37:34.944Z,14.56
2023-05-05T05:40:08.296Z,14.65
2023-05-05T05:42:40.045Z,14.87
2023-05-05T05:45:12.486Z,15.14
2023-05-05T05:47:43.397Z,15.33
2023-05-05T05:50:15.252Z,15.41
2023-05-05T05:52:46.259Z,15.54
2023-05-05T05:55:16.964Z,15.64
2023-05-05T05:57:47.806Z,15.66
2023-05-05T06:00:20.235Z,15.64
2023-05-05T06:02:53.376Z,15.58
2023-05-05T06:05:27.010Z,15.53
2023-05-05T06:07:58.749Z,15.65
2023-05-05T06:10:30.010Z,15.84
2023-05-05T06:13:08.108Z,16.21
2023-05-05T06:15:39.858Z,16.66
2023-05-05T06:18:11.101Z,17.02
2023-05-05T06:20:43.517Z,17.32
2023-05-05T06:23:15.279Z,17.63
2023-05-05T06:25:50.854Z,17.90
2023-05-05T06:28:21.490Z,18.23
2023-05-05T06:30:52.044Z,18.50
2023-05-05T06:33:22.759Z,18.49
2023-05-05T06:35:54.393Z,18.62
2023-05-05T06:38:25.150Z,18.61
2023-05-05T06:40:58.485Z,18.58
2023-05-05T06:43:29.471Z,18.67
2023-05-05T06:46:02.873Z,18.89
2023-05-05T06:48:33.653Z,19.08
2023-05-05T06:51:04.490Z,19.18
2023-05-05T06:53:35.541Z,19.36
2023-05-05T06:56:06.919Z,19.59
2023-05-05T06:58:37.993Z,19.77
2023-05-05T07:01:08.844Z,19.89
2023-05-05T07:03:39.837Z,20.09
2023-05-05T07:06:11.416Z,20.24
2023-05-05T07:08:42.246Z,20.47
2023-05-05T07:11:12.929Z,20.77
2023-05-05T07:13:43.520Z,21.03
2023-05-05T07:16:14.290Z,21.25
2023-05-05T07:18:45.006Z,21.54
2023-05-05T07:21:15.943Z,21.79
2023-05-05T07:23:47.836Z,21.97
2023-05-05T07:26:17.206Z,22.00
2023-05-05T07:28:48.047Z,22.04
2023-05-05T07:31:19.310Z,22.10
2023-05-05T07:33:50.786Z,22.09
2023-05-05T07:36:22.241Z,22.02
2023-05-05T07:38:52.925Z,22.07
2023-05-05T07:41:23.652Z,22.20
2023-05-05T07:43:54.247Z,22.44
2023-05-05T07:46:24.930Z,22.61
2023-05-05T07:48:55.540Z,22.83
2023-05-05T07:51:26.514Z,22.99
2023-05-05T07:53:57.944Z,23.07
2023-05-05T07:56:28.759Z,23.07
2023-05-05T07:58:59.602Z,23.10
2023-05-05T08:01:30.410Z,23.14
2023-05-05T08:04:01.276Z,23.31
2023-05-05T08:06:33.896Z,23.43
2023-05-05T08:09:05.274Z,23.54
2023-05-05T08:11:36.019Z,23.66
2023-05-05T08:14:08.016Z,23.69
2023-05-05T08:16:38.714Z,23.77
2023-05-05T08:19:21.081Z,23.84
2023-05-05T08:22:01.078Z,23.79
2023-05-05T08:24:32.059Z,23.70
2023-05-05T08:27:02.671Z,23.65
2023-05-05T08:29:33.236Z,23.73
2023-05-05T08:32:03.925Z,23.82
2023-05-05T08:34:34.612Z,23.92
2023-05-05T08:37:05.292Z,24.05
2023-05-05T08:39:36.048Z,24.09
2023-05-05T08:42:07.308Z,24.10
2023-05-05T08:44:38.118Z,24.18
2023-05-05T08:47:11.759Z,24.20
2023-05-05T08:49:45.907Z,24.27
2023-05-05T08:52:19.479Z,24.31
2023-05-05T08:54:56.157Z,24.24
2023-05-05T08:57:33.773Z,24.12
2023-05-05T09:00:05.623Z,23.99
2023-05-05T09:02:35.160Z,23.85
2023-05-05T09:05:07.394Z,23.80
2023-05-05T09:07:41.410Z,23.63
2023-05-05T09:10:13.689Z,23.74
2023-05-05T09:12:44.824Z,23.77
2023-05-05T09:15:16.348Z,23.76
2023-05-05T09:17:46.984Z,23.87
2023-05-05T09:20:18.291Z,23.93
2023-05-05T09:22:49.419Z,23.92
2023-05-05T09:25:20.869Z,23.98
2023-05-05T09:27:51.875Z,24.10
2023-05-05T09:30:28.011Z,24.10
2023-05-05T09:32:58.656Z,24.08
2023-05-05T09:35:30.019Z,24.19
2023-05-05T09:38:11.880Z,24.20
2023-05-05T09:40:49.316Z,24.17
2023-05-05T09:43:21.898Z,24.18
2023-05-05T09:45:52.741Z,24.17
2023-05-05T09:48:31.117Z,24.22
2023-05-05T09:51:02.345Z,24.18
2023-05-05T09:53:42.285Z,24.17
2023-05-05T09:56:13.399Z,24.20
2023-05-05T09:58:44.024Z,24.15
2023-05-05T10:01:24.488Z,24.07
2023-05-05T10:03:55.270Z,23.98
2023-05-05T10:06:47.210Z,23.92
2023-05-05T10:09:17.845Z,23.87
2023-05-05T10:11:49.981Z,23.87
2023-05-05T10:14:21.141Z,23.93
2023-05-05T10:16:53.303Z,23.94
2023-05-05T10:19:25.207Z,23.94
2023-05-05T10:22:00.916Z,23.89
2023-05-05T10:24:40.388Z,23.84
2023-05-05T10:27:16.485Z,23.84
2023-05-05T10:29:56.068Z,23.84
2023-05-05T10:32:56.843Z,23.83
2023-05-05T10:35:27.265Z,23.78
2023-05-05T10:38:01.208Z,23.70
2023-05-05T10:40:33.959Z,23.67
2023-05-05T10:43:05.185Z,23.67
2023-05-05T10:45:36.207Z,23.57
2023-05-05T10:48:11.689Z,23.53
2023-05-05T10:50:50.190Z,23.54
2023-05-05T10:53:24.823Z,23.54
2023-05-05T10:56:12.986Z,23.51
2023-05-05T10:58:58.937Z,23.54
2023-05-05T11:01:35.156Z,23.58
2023-05-05T11:04:23.356Z,23.60
2023-05-05T11:07:25.966Z,23.60
2023-05-05T11:10:01.903Z,23.62
2023-05-05T11:12:34.658Z,23.61
2023-05-05T11:15:38.581Z,23.52
2023-05-05T11:18:28.702Z,23.46
2023-05-05T11:21:16.559Z,23.40
2023-05-05T11:23:49.121Z,23.42
2023-05-05T11:26:41.329Z,23.43
2023-05-05T11:29:11.996Z,23.41
2023-05-05T11:31:42.692Z,23.35
2023-05-05T11:34:29.733Z,23.30
2023-05-05T11:37:04.129Z,23.31
2023-05-05T11:39:48.405Z,23.35
2023-05-05T11:42:26.611Z,23.36
2023-05-05T11:44:57.759Z,23.33
2023-05-05T11:47:32.461Z,23.31
2023-05-05T11:50:18.868Z,23.31
2023-05-05T11:52:50.145Z,23.29
2023-05-05T11:55:24.422Z,23.19
2023-05-05T11:57:55.078Z,23.22
2023-05-05T12:00:35.235Z,23.21
2023-05-05T12:03:06.554Z,23.16
2023-05-05T12:05:37.438Z,23.22
2023-05-05T12:08:08.508Z,23.28
2023-05-05T12:10:39.197Z,23.28
2023-05-05T12:13:20.650Z,23.23
2023-05-05T12:15:51.482Z,23.17
2023-05-05T12:18:22.769Z,23.21
2023-05-05T12:20:53.470Z,23.29
2023-05-05T12:23:27.337Z,23.32
2023-05-05T12:25:58.329Z,23.36
2023-05-05T12:28:46.322Z,23.35
2023-05-05T12:31:16.989Z,23.41
2023-05-05T12:33:48.151Z,23.37
2023-05-05T12:36:19.385Z,23.29
2023-05-05T12:38:50.567Z,23.20
2023-05-05T12:41:22.489Z,23.12
2023-05-05T12:43:57.801Z,23.04
2023-05-05T12:46:29.734Z,22.97
2023-05-05T12:49:05.779Z,22.95
2023-05-05T12:51:37.190Z,22.92
2023-05-05T12:54:09.853Z,22.95
2023-05-05T12:56:41.956Z,22.95
2023-05-05T12:59:13.392Z,22.94
2023-05-05T13:01:53.316Z,22.96
2023-05-05T13:04:25.757Z,23.01
2023-05-05T13:07:13.112Z,23.03
2023-05-05T13:09:44.624Z,23.07
2023-05-05T13:12:15.638Z,23.10
2023-05-05T13:14:46.631Z,23.13
2023-05-05T13:17:18.273Z,23.18
2023-05-05T13:19:48.903Z,23.25
2023-05-05T13:22:20.529Z,23.26
2023-05-05T13:24:52.825Z,23.30
2023-05-05T13:27:23.737Z,23.33
2023-05-05T13:29:54.410Z,23.34
2023-05-05T13:32:25.120Z,23.27
2023-05-05T13:34:55.766Z,23.20
2023-05-05T13:37:26.408Z,23.15
2023-05-05T13:40:00.347Z,23.10
2023-05-05T13:42:30.990Z,23.04
2023-05-05T13:45:01.707Z,23.00
2023-05-05T13:47:32.527Z,22.94
2023-05-05T13:50:03.346Z,22.86
2023-05-05T13:52:34.061Z,22.80
2023-05-05T13:55:05.245Z,22.75
2023-05-05T13:57:35.884Z,22.73
2023-05-05T14:00:09.446Z,22.69
2023-05-05T14:02:40.537Z,22.67
2023-05-05T14:05:12.887Z,22.66
2023-05-05T14:07:43.532Z,22.66
2023-05-05T14:10:14.582Z,22.73
2023-05-05T14:12:45.457Z,22.80
2023-05-05T14:15:16.409Z,22.83
2023-05-05T14:17:47.251Z,22.84
2023-05-05T14:20:17.852Z,22.88
2023-05-05T14:22:49.388Z,22.90
2023-05-05T14:25:20.414Z,22.90
2023-05-05T14:27:51.057Z,22.88
2023-05-05T14:30:21.670Z,22.87
2023-05-05T14:32:52.342Z,22.86
2023-05-05T14:35:23.017Z,22.87
2023-05-05T14:37:53.649Z,22.85
2023-05-05T14:40:24.503Z,22.83
2023-05-05T14:42:55.176Z,22.83
2023-05-05T14:45:26.463Z,22.84
2023-05-05T14:47:57.485Z,22.85
2023-05-05T14:50:28.433Z,22.88
2023-05-05T14:52:59.032Z,22.89
2023-05-05T14:55:29.917Z,22.91
2023-05-05T14:58:00.515Z,22.92
2023-05-05T15:00:31.095Z,22.90
2023-05-05T15:03:01.943Z,22.88
2023-05-05T15:05:32.720Z,22.86
2023-05-05T15:08:03.354Z,22.85
2023-05-05T15:10:33.974Z,22.80
2023-05-05T15:13:04.745Z,22.75
2023-05-05T15:15:35.208Z,22.70
2023-05-05T15:18:06.464Z,22.65
2023-05-05T15:20:37.225Z,22.59
2023-05-05T15:23:08.101Z,22.55
2023-05-05T15:25:38.836Z,22.51
2023-05-05T15:28:09.678Z,22.47
2023-05-05T15:30:40.388Z,22.44
2023-05-05T15:33:11.895Z,22.40
2023-05-05T15:35:42.793Z,22.37
2023-05-05T15:38:13.505Z,22.34
2023-05-05T15:40:49.534Z,22.30
2023-05-05T15:43:21.027Z,22.28
2023-05-05T15:45:54.517Z,22.26
2023-05-05T15:48:25.136Z,22.24
2023-05-05T15:50:55.870Z,22.21
2023-05-05T15:53:26.968Z,22.18
2023-05-05T15:55:57.556Z,22.14
2023-05-05T15:58:28.258Z,22.13
2023-05-05T16:00:59.460Z,22.08
2023-05-05T16:03:31.084Z,22.04
2023-05-05T16:06:02.076Z,22.01
2023-05-05T16:08:32.799Z,21.99
2023-05-05T16:11:03.375Z,21.97
2023-05-05T16:13:34.053Z,21.95
2023-05-05T16:16:04.993Z,21.91
2023-05-05T16:18:35.605Z,21.89
2023-05-05T16:21:06.697Z,21.86
2023-05-05T16:23:37.682Z,21.83
2023-05-05T16:26:08.462Z,21.79
2023-05-05T16:28:39.503Z,21.76
2023-05-05T16:31:10.871Z,21.73
2023-05-05T16:33:43.742Z,21.70
2023-05-05T16:36:14.784Z,21.65
2023-05-05T16:38:45.632Z,21.62
2023-05-05T16:41:16.368Z,21.57
2023-05-05T16:43:47.332Z,21.53
2023-05-05T16:46:18.278Z,21.49
2023-05-05T16:48:49.122Z,21.44
2023-05-05T16:51:19.847Z,21.40
2023-05-05T16:53:50.549Z,21.37
2023-05-05T16:56:21.246Z,21.34
2023-05-05T16:58:52.542Z,21.29
2023-05-05T17:01:23.409Z,21.25
2023-05-05T17:03:55.361Z,21.21
2023-05-05T17:06:26.773Z,21.17
2023-05-05T17:08:57.454Z,21.12
2023-05-05T17:11:28.266Z,21.08
2023-05-05T17:13:59.092Z,21.03
2023-05-05T17:16:29.794Z,20.99
2023-05-05T17:19:00.634Z,20.94
2023-05-05T17:21:31.370Z,20.91
2023-05-05T17:24:02.262Z,20.87
2023-05-05T17:26:33.561Z,20.84
2023-05-05T17:29:04.222Z,20.81
2023-05-05T17:31:34.932Z,20.78
2023-05-05T17:34:05.734Z,20.75
2023-05-05T17:36:36.922Z,20.70
2023-05-05T17:39:07.718Z,20.67
2023-05-05T17:41:42.495Z,20.64
2023-05-05T17:44:13.207Z,20.60
2023-05-05T17:46:43.884Z,20.55
2023-05-05T17:49:14.554Z,20.53
2023-05-05T17:51:45.264Z,20.48
2023-05-05T17:54:16.246Z,20.46
2023-05-05T17:56:46.968Z,20.42
2023-05-05T17:59:17.693Z,20.38
2023-05-05T18:01:48.401Z,20.35
2023-05-05T18:04:19.266Z,20.31
2023-05-05T18:06:50.025Z,20.27
2023-05-05T18:09:20.707Z,20.21
2023-05-05T18:11:54.451Z,20.16
2023-05-05T18:14:25.070Z,20.10
2023-05-05T18:16:55.847Z,20.02
2023-05-05T18:19:26.723Z,19.95
2023-05-05T18:21:57.524Z,19.88
2023-05-05T18:24:28.780Z,19.83
2023-05-05T18:26:59.673Z,19.78
2023-05-05T18:29:30.294Z,19.74
2023-05-05T18:32:00.965Z,19.70
2023-05-05T18:34:31.645Z,19.65
2023-05-05T18:37:02.274Z,19.61
2023-05-05T18:39:33.033Z,19.54
2023-05-05T18:42:03.871Z,19.53
2023-05-05T18:44:35.168Z,19.48
2023-05-05T18:47:06.894Z,19.46
2023-05-05T18:49:37.924Z,19.40
2023-05-05T18:52:08.756Z,19.37
2023-05-05T18:54:39.354Z,19.33
2023-05-05T18:57:10.075Z,19.30
2023-05-05T18:59:40.761Z,19.27
2023-05-05T19:02:11.410Z,19.24
2023-05-05T19:04:43.578Z,19.21
2023-05-05T19:07:23.876Z,19.17
2023-05-05T19:10:02.390Z,19.12
2023-05-05T19:12:33.215Z,19.09
2023-05-05T19:15:03.965Z,19.06
2023-05-05T19:17:35.019Z,19.03
2023-05-05T19:20:06.874Z,19.01
2023-05-05T19:22:37.647Z,18.99
2023-05-05T19:25:10.045Z,18.95
2023-05-05T19:27:40.866Z,18.94
2023-05-05T19:30:13.311Z,18.93
2023-05-05T19:32:44.645Z,18.88
2023-05-05T19:35:15.537Z,18.84
2023-05-05T19:37:46.287Z,18.82
2023-05-05T19:40:17.044Z,18.81
2023-05-05T19:42:47.788Z,18.75
2023-05-05T19:45:19.139Z,18.77
2023-05-05T19:47:49.805Z,18.76
2023-05-05T19:50:21.308Z,18.74
2023-05-05T19:52:52.241Z,18.70
2023-05-05T19:55:24.440Z,18.72
2023-05-05T19:57:53.752Z,18.71
2023-05-05T20:00:24.666Z,18.69
2023-05-05T20:02:55.346Z,18.67
2023-05-05T20:05:26.387Z,18.66
2023-05-05T20:07:57.295Z,18.64
2023-05-05T20:10:27.932Z,18.62
2023-05-05T20:12:58.635Z,18.61
2023-05-05T20:15:31.211Z,18.58
2023-05-05T20:18:02.031Z,18.54
2023-05-05T20:20:33.199Z,18.51
2023-05-05T20:23:03.986Z,18.50
2023-05-05T20:25:34.686Z,18.48
2023-05-05T20:28:05.647Z,18.46
2023-05-05T20:30:36.352Z,18.44
2023-05-05T20:33:07.268Z,18.43
2023-05-05T20:35:38.163Z,18.41
2023-05-05T20:38:09.730Z,18.39
2023-05-05T20:40:40.974Z,18.35
2023-05-05T20:43:12.042Z,18.30
2023-05-05T20:45:42.983Z,18.26
2023-05-05T20:48:13.685Z,18.23
2023-05-05T20:50:44.801Z,18.19
2023-05-05T20:53:15.552Z,18.14
2023-05-05T20:55:46.093Z,18.11
2023-05-05T20:58:17.041Z,18.07
2023-05-05T21:00:47.850Z,18.03
2023-05-05T21:03:18.719Z,17.99
2023-05-05T21:05:49.862Z,17.96
2023-05-05T21:08:20.654Z,17.96
2023-05-05T21:10:51.541Z,17.96
2023-05-05T21:13:22.936Z,17.96
2023-05-05T21:15:53.904Z,17.96
2023-05-05T21:18:25.810Z,17.94
2023-05-05T21:20:56.516Z,17.93
2023-05-05T21:23:27.334Z,17.91
2023-05-05T21:25:58.133Z,17.88
2023-05-05T21:28:28.749Z,17.86
2023-05-05T21:31:20.414Z,17.85
2023-05-05T21:33:50.040Z,17.83
2023-05-05T21:36:21.282Z,17.79
2023-05-05T21:38:55.506Z,17.79
2023-05-05T21:41:26.942Z,17.78
2023-05-05T21:43:59.135Z,17.76
2023-05-05T21:46:28.180Z,17.75
2023-05-05T21:48:58.788Z,17.75
2023-05-05T21:51:29.345Z,17.73
2023-05-05T21:54:00.014Z,17.73
2023-05-05T21:56:30.625Z,17.74
2023-05-05T21:59:02.076Z,17.73
2023-05-05T22:01:33.002Z,17.71
2023-05-05T22:04:03.926Z,17.69
2023-05-05T22:06:34.681Z,17.67
2023-05-05T22:09:05.380Z,17.68
2023-05-05T22:11:36.197Z,17.67
2023-05-05T22:14:06.885Z,17.65
2023-05-05T22:16:37.772Z,17.63
2023-05-05T22:19:08.494Z,17.60
2023-05-05T22:21:39.089Z,17.59
2023-05-05T22:24:10.209Z,17.58
2023-05-05T22:26:43.272Z,17.57
2023-05-05T22:29:14.203Z,17.53
2023-05-05T22:31:45.070Z,17.47
2023-05-05T22:34:18.732Z,17.41
2023-05-05T22:36:49.893Z,17.40
2023-05-05T22:39:20.563Z,17.35
2023-05-05T22:41:51.168Z,17.33
2023-05-05T22:44:21.875Z,17.29
2023-05-05T22:46:52.972Z,17.23
2023-05-05T22:49:24.252Z,17.12
2023-05-05T22:51:55.189Z,17.07
2023-05-05T22:54:25.929Z,17.00
2023-05-05T22:56:56.469Z,16.96
2023-05-05T22:59:27.217Z,16.93
2023-05-05T23:01:57.958Z,16.91
2023-05-05T23:04:28.658Z,16.92
2023-05-05T23:06:59.268Z,16.94
2023-05-05T23:09:29.989Z,16.94
2023-05-05T23:12:00.916Z,16.92
2023-05-05T23:14:31.976Z,16.91
2023-05-05T23:17:02.759Z,16.85
2023-05-05T23:19:34.643Z,16.70
2023-05-05T23:22:05.913Z,16.60
2023-05-05T23:24:36.759Z,16.54
2023-05-05T23:27:07.383Z,16.59
2023-05-05T23:29:38.308Z,16.59
2023-05-05T23:32:09.473Z,16.58
2023-05-05T23:34:40.148Z,16.50
2023-05-05T23:37:10.735Z,16.32
2023-05-05T23:39:41.349Z,16.16
2023-05-05T23:42:12.110Z,16.12
2023-05-05T23:44:42.720Z,16.12
2023-05-05T23:47:13.520Z,16.10
2023-05-05T23:49:44.145Z,16.07
2023-05-05T23:52:15.332Z,16.05
2023-05-05T23:54:47.362Z,16.06
2023-05-05T23:57:18.089Z,16.05
2023-05-05T23:59:48.693Z,16.05
